aviador You're here:

LFMY Decoded Metar

SALON in FRANCE
Report Time2018-01-19 05:00:00
UTC Time2018-01-19 05:34:13
Flight Rules vfr VFR
WindCalm
Visibility9999 m
Phenomena:N/A
Clouds:N/A
Expected CloudBase > 400 ft AGL from Temp-Dew spread
CeilingNone
Temp02°C (ISA -13)
Dew Point01°C (93% RH)
AAT0.2°C
QNH1015 hPa
Density Alt-1,316 ft
Elevation197 ft
Report Wrong Elevation
Raw Report
METAR LFMY 190500Z AUTO 00000KT CAVOK 02/01 Q1015=

Extra information for LFMY:More info

Metar Taf Metar & Taf Last 4 Metars F.Rules Stats Wind Profile Meteogram Temp Stats Airport Information Weather charts Add Link Nearby VenuesMetar ALERT Operation Metar Decoded Social comments